Sconset, Massachusetts
Current Conditions -  °F | °C
As of 10:53 PM on Saturday 25 Oct 2014 (Local Time) from KACK Reporting Station
Broken Clouds Broken Clouds  
Wind Chill: 59°   Ceiling: 10000
Heat Index: 59°   Visibility: 10mi
Dew Point: 53°   Wind: 12mph
Humidity: 81%   Direction: 230°SW
Pressure: 29.59"   Gusts: NA
Location:  41.2623°N, 69.9668°W
Report Text: KACK 260253Z AUTO 23010KT 10SM BKN100 15/12 A2959 RMK AO2 SLP019 T01500117 58014
Loading
Personal Weather Stations






























Interactive Weather Map
Tropical Storm Tracking
New forecast layout! Learn more

10-Day Weather Forecast

Advertisements
Track Severe Weather on mobile